sensor_id;sensor_type;location;lat;lon;timestamp;P1;durP1;ratioP1;P2;durP2;ratioP2
27889;SDS011;15238;49.082;9.102;2023-03-16T00:01:08;21.30;;;13.32;;
27889;SDS011;15238;49.082;9.102;2023-03-16T00:03:10;20.50;;;13.77;;
27889;SDS011;15238;49.082;9.102;2023-03-16T00:05:12;22.05;;;14.18;;
27889;SDS011;15238;49.082;9.102;2023-03-16T00:07:13;20.27;;;14.63;;
27889;SDS011;15238;49.082;9.102;2023-03-16T00:09:14;22.27;;;13.52;;
27889;SDS011;15238;49.082;9.102;2023-03-16T00:11:16;22.42;;;14.68;;
27889;SDS011;15238;49.082;9.102;2023-03-16T00:13:17;22.00;;;14.10;;
27889;SDS011;15238;49.082;9.102;2023-03-16T00:15:19;22.38;;;14.00;;
27889;SDS011;15238;49.082;9.102;2023-03-16T00:17:20;21.85;;;14.57;;
27889;SDS011;15238;49.082;9.102;2023-03-16T00:19:20;26.77;;;15.15;;
27889;SDS011;15238;49.082;9.102;2023-03-16T00:21:21;23.23;;;15.43;;
27889;SDS011;15238;49.082;9.102;2023-03-16T00:23:22;20.20;;;14.32;;
27889;SDS011;15238;49.082;9.102;2023-03-16T00:25:26;29.02;;;16.05;;
27889;SDS011;15238;49.082;9.102;2023-03-16T00:27:26;25.40;;;16.38;;
27889;SDS011;15238;49.082;9.102;2023-03-16T00:29:27;30.08;;;18.15;;
27889;SDS011;15238;49.082;9.102;2023-03-16T00:31:27;30.30;;;17.23;;
27889;SDS011;15238;49.082;9.102;2023-03-16T00:33:28;124.75;;;24.48;;
27889;SDS011;15238;49.082;9.102;2023-03-16T00:35:29;69.10;;;21.20;;
27889;SDS011;15238;49.082;9.102;2023-03-16T00:37:33;35.40;;;19.55;;
27889;SDS011;15238;49.082;9.102;2023-03-16T00:39:34;27.70;;;17.98;;
27889;SDS011;15238;49.082;9.102;2023-03-16T00:41:34;27.33;;;17.73;;
27889;SDS011;15238;49.082;9.102;2023-03-16T00:43:36;24.23;;;16.50;;
27889;SDS011;15238;49.082;9.102;2023-03-16T00:45:40;23.95;;;17.05;;
27889;SDS011;15238;49.082;9.102;2023-03-16T00:47:43;37.20;;;17.63;;
27889;SDS011;15238;49.082;9.102;2023-03-16T00:49:44;25.15;;;17.08;;
27889;SDS011;15238;49.082;9.102;2023-03-16T00:51:44;30.10;;;18.20;;
27889;SDS011;15238;49.082;9.102;2023-03-16T00:53:45;37.78;;;19.10;;
27889;SDS011;15238;49.082;9.102;2023-03-16T00:55:46;177.23;;;23.48;;
27889;SDS011;15238;49.082;9.102;2023-03-16T00:57:46;58.50;;;17.98;;
27889;SDS011;15238;49.082;9.102;2023-03-16T00:59:47;65.78;;;17.30;;
27889;SDS011;15238;49.082;9.102;2023-03-16T01:01:48;217.68;;;24.13;;
27889;SDS011;15238;49.082;9.102;2023-03-16T01:03:48;55.83;;;17.35;;
27889;SDS011;15238;49.082;9.102;2023-03-16T01:05:49;43.88;;;17.88;;
27889;SDS011;15238;49.082;9.102;2023-03-16T01:07:49;260.13;;;21.48;;
27889;SDS011;15238;49.082;9.102;2023-03-16T01:09:51;214.25;;;21.40;;
27889;SDS011;15238;49.082;9.102;2023-03-16T01:11:51;270.40;;;22.05;;
27889;SDS011;15238;49.082;9.102;2023-03-16T01:13:53;211.25;;;19.80;;
27889;SDS011;15238;49.082;9.102;2023-03-16T01:15:54;230.60;;;21.50;;
27889;SDS011;15238;49.082;9.102;2023-03-16T01:17:54;274.45;;;24.27;;
27889;SDS011;15238;49.082;9.102;2023-03-16T01:19:55;253.00;;;22.88;;
27889;SDS011;15238;49.082;9.102;2023-03-16T01:21:56;210.13;;;20.02;;
27889;SDS011;15238;49.082;9.102;2023-03-16T01:23:56;275.25;;;21.98;;
27889;SDS011;15238;49.082;9.102;2023-03-16T01:25:57;241.85;;;21.15;;
27889;SDS011;15238;49.082;9.102;2023-03-16T01:27:58;186.77;;;21.48;;
27889;SDS011;15238;49.082;9.102;2023-03-16T01:30:00;170.90;;;18.38;;
27889;SDS011;15238;49.082;9.102;2023-03-16T01:32:01;111.05;;;15.07;;
27889;SDS011;15238;49.082;9.102;2023-03-16T01:34:03;135.07;;;18.83;;
27889;SDS011;15238;49.082;9.102;2023-03-16T01:36:04;83.10;;;17.63;;
27889;SDS011;15238;49.082;9.102;2023-03-16T01:38:08;35.35;;;15.45;;
27889;SDS011;15238;49.082;9.102;2023-03-16T01:40:09;40.08;;;15.93;;
27889;SDS011;15238;49.082;9.102;2023-03-16T01:42:11;47.15;;;15.73;;
27889;SDS011;15238;49.082;9.102;2023-03-16T01:44:13;62.15;;;15.70;;
27889;SDS011;15238;49.082;9.102;2023-03-16T01:46:23;38.25;;;15.82;;
27889;SDS011;15238;49.082;9.102;2023-03-16T01:48:27;25.15;;;14.73;;
27889;SDS011;15238;49.082;9.102;2023-03-16T01:50:28;26.67;;;15.07;;
27889;SDS011;15238;49.082;9.102;2023-03-16T01:52:31;28.98;;;16.55;;
27889;SDS011;15238;49.082;9.102;2023-03-16T01:54:38;26.25;;;16.00;;
27889;SDS011;15238;49.082;9.102;2023-03-16T01:56:53;28.92;;;15.05;;
27889;SDS011;15238;49.082;9.102;2023-03-16T01:58:59;32.03;;;14.95;;
27889;SDS011;15238;49.082;9.102;2023-03-16T02:01:02;25.27;;;14.68;;
27889;SDS011;15238;49.082;9.102;2023-03-16T02:03:05;30.63;;;14.43;;
27889;SDS011;15238;49.082;9.102;2023-03-16T02:05:10;23.25;;;13.10;;
27889;SDS011;15238;49.082;9.102;2023-03-16T02:07:14;21.10;;;13.55;;
27889;SDS011;15238;49.082;9.102;2023-03-16T02:09:16;28.90;;;13.50;;
27889;SDS011;15238;49.082;9.102;2023-03-16T02:11:17;22.08;;;13.07;;
27889;SDS011;15238;49.082;9.102;2023-03-16T02:13:18;20.48;;;12.88;;
27889;SDS011;15238;49.082;9.102;2023-03-16T02:15:20;25.17;;;12.68;;
27889;SDS011;15238;49.082;9.102;2023-03-16T02:17:22;31.95;;;12.60;;
27889;SDS011;15238;49.082;9.102;2023-03-16T02:19:31;41.30;;;13.30;;
27889;SDS011;15238;49.082;9.102;2023-03-16T02:21:50;118.05;;;17.27;;
27889;SDS011;15238;49.082;9.102;2023-03-16T02:24:01;196.25;;;18.13;;
27889;SDS011;15238;49.082;9.102;2023-03-16T02:26:07;203.02;;;19.50;;
27889;SDS011;15238;49.082;9.102;2023-03-16T02:28:31;197.02;;;19.02;;
27889;SDS011;15238;49.082;9.102;2023-03-16T02:30:37;325.92;;;22.45;;
27889;SDS011;15238;49.082;9.102;2023-03-16T02:32:38;192.60;;;20.00;;
27889;SDS011;15238;49.082;9.102;2023-03-16T02:34:40;241.15;;;23.10;;
27889;SDS011;15238;49.082;9.102;2023-03-16T02:36:41;206.02;;;21.85;;
27889;SDS011;15238;49.082;9.102;2023-03-16T02:38:45;82.30;;;16.50;;
27889;SDS011;15238;49.082;9.102;2023-03-16T02:40:51;75.35;;;21.02;;
27889;SDS011;15238;49.082;9.102;2023-03-16T02:43:00;158.98;;;21.30;;
27889;SDS011;15238;49.082;9.102;2023-03-16T02:45:04;183.60;;;19.95;;
27889;SDS011;15238;49.082;9.102;2023-03-16T02:47:06;205.55;;;19.25;;
27889;SDS011;15238;49.082;9.102;2023-03-16T02:51:12;120.20;;;15.77;;
27889;SDS011;15238;49.082;9.102;2023-03-16T02:53:13;75.07;;;13.82;;
27889;SDS011;15238;49.082;9.102;2023-03-16T02:55:14;224.27;;;17.15;;
27889;SDS011;15238;49.082;9.102;2023-03-16T02:57:15;262.05;;;19.35;;
27889;SDS011;15238;49.082;9.102;2023-03-16T02:59:15;337.40;;;22.48;;
27889;SDS011;15238;49.082;9.102;2023-03-16T03:01:16;379.05;;;25.75;;
27889;SDS011;15238;49.082;9.102;2023-03-16T03:03:17;86.63;;;14.35;;
27889;SDS011;15238;49.082;9.102;2023-03-16T03:05:17;369.60;;;21.08;;
27889;SDS011;15238;49.082;9.102;2023-03-16T03:07:19;283.98;;;16.75;;
27889;SDS011;15238;49.082;9.102;2023-03-16T03:09:20;265.27;;;18.63;;
27889;SDS011;15238;49.082;9.102;2023-03-16T03:11:20;313.15;;;19.85;;
27889;SDS011;15238;49.082;9.102;2023-03-16T03:13:21;265.25;;;17.95;;
27889;SDS011;15238;49.082;9.102;2023-03-16T03:15:23;223.07;;;15.35;;
27889;SDS011;15238;49.082;9.102;2023-03-16T03:17:24;150.32;;;13.25;;
27889;SDS011;15238;49.082;9.102;2023-03-16T03:19:31;99.47;;;14.27;;
27889;SDS011;15238;49.082;9.102;2023-03-16T03:21:32;182.73;;;14.23;;
27889;SDS011;15238;49.082;9.102;2023-03-16T03:23:33;115.82;;;11.95;;
27889;SDS011;15238;49.082;9.102;2023-03-16T03:25:36;26.55;;;9.00;;
27889;SDS011;15238;49.082;9.102;2023-03-16T03:27:37;82.55;;;11.32;;
27889;SDS011;15238;49.082;9.102;2023-03-16T03:29:37;65.15;;;11.40;;
27889;SDS011;15238;49.082;9.102;2023-03-16T03:31:38;73.80;;;11.70;;
27889;SDS011;15238;49.082;9.102;2023-03-16T03:33:38;37.92;;;10.30;;
27889;SDS011;15238;49.082;9.102;2023-03-16T03:35:39;68.25;;;11.52;;
27889;SDS011;15238;49.082;9.102;2023-03-16T03:37:41;29.27;;;10.80;;
27889;SDS011;15238;49.082;9.102;2023-03-16T03:39:44;28.20;;;9.07;;
27889;SDS011;15238;49.082;9.102;2023-03-16T03:41:44;40.47;;;10.23;;
27889;SDS011;15238;49.082;9.102;2023-03-16T03:43:45;16.20;;;9.85;;
27889;SDS011;15238;49.082;9.102;2023-03-16T03:45:45;16.02;;;10.10;;
27889;SDS011;15238;49.082;9.102;2023-03-16T03:47:46;19.77;;;9.98;;
27889;SDS011;15238;49.082;9.102;2023-03-16T03:49:46;14.50;;;10.02;;
27889;SDS011;15238;49.082;9.102;2023-03-16T03:51:47;13.88;;;10.05;;
27889;SDS011;15238;49.082;9.102;2023-03-16T03:53:47;15.25;;;9.90;;
27889;SDS011;15238;49.082;9.102;2023-03-16T03:55:48;15.02;;;10.38;;
27889;SDS011;15238;49.082;9.102;2023-03-16T03:57:49;16.35;;;10.75;;
27889;SDS011;15238;49.082;9.102;2023-03-16T03:59:49;17.30;;;12.10;;
27889;SDS011;15238;49.082;9.102;2023-03-16T04:01:50;17.95;;;11.48;;
27889;SDS011;15238;49.082;9.102;2023-03-16T04:03:52;20.73;;;12.18;;
27889;SDS011;15238;49.082;9.102;2023-03-16T04:05:53;15.88;;;10.50;;
27889;SDS011;15238;49.082;9.102;2023-03-16T04:07:55;16.02;;;9.93;;
27889;SDS011;15238;49.082;9.102;2023-03-16T04:09:56;17.13;;;10.88;;
27889;SDS011;15238;49.082;9.102;2023-03-16T04:11:57;16.35;;;10.55;;
27889;SDS011;15238;49.082;9.102;2023-03-16T04:13:57;18.80;;;11.35;;
27889;SDS011;15238;49.082;9.102;2023-03-16T04:15:59;25.98;;;11.68;;
27889;SDS011;15238;49.082;9.102;2023-03-16T04:18:03;24.98;;;11.63;;
27889;SDS011;15238;49.082;9.102;2023-03-16T04:20:04;26.23;;;10.90;;
27889;SDS011;15238;49.082;9.102;2023-03-16T04:22:10;39.30;;;11.02;;
27889;SDS011;15238;49.082;9.102;2023-03-16T04:24:12;72.95;;;12.63;;
27889;SDS011;15238;49.082;9.102;2023-03-16T04:26:14;72.88;;;10.98;;
27889;SDS011;15238;49.082;9.102;2023-03-16T04:28:14;64.28;;;10.73;;
27889;SDS011;15238;49.082;9.102;2023-03-16T04:30:16;73.35;;;11.50;;
27889;SDS011;15238;49.082;9.102;2023-03-16T04:32:17;64.47;;;11.25;;
27889;SDS011;15238;49.082;9.102;2023-03-16T04:34:17;53.65;;;10.98;;
27889;SDS011;15238;49.082;9.102;2023-03-16T04:36:19;89.55;;;13.90;;
27889;SDS011;15238;49.082;9.102;2023-03-16T04:38:23;61.78;;;11.90;;
27889;SDS011;15238;49.082;9.102;2023-03-16T04:40:23;73.22;;;11.55;;
27889;SDS011;15238;49.082;9.102;2023-03-16T04:42:25;78.65;;;12.25;;
27889;SDS011;15238;49.082;9.102;2023-03-16T04:44:25;63.65;;;10.95;;
27889;SDS011;15238;49.082;9.102;2023-03-16T04:46:26;55.97;;;10.93;;
27889;SDS011;15238;49.082;9.102;2023-03-16T04:48:27;52.25;;;11.23;;
27889;SDS011;15238;49.082;9.102;2023-03-16T04:50:29;62.47;;;11.40;;
27889;SDS011;15238;49.082;9.102;2023-03-16T04:52:30;59.75;;;11.63;;
27889;SDS011;15238;49.082;9.102;2023-03-16T04:54:31;37.20;;;11.70;;
27889;SDS011;15238;49.082;9.102;2023-03-16T04:56:32;54.05;;;12.20;;
27889;SDS011;15238;49.082;9.102;2023-03-16T04:58:33;43.38;;;11.45;;
27889;SDS011;15238;49.082;9.102;2023-03-16T05:00:33;39.35;;;10.35;;
27889;SDS011;15238;49.082;9.102;2023-03-16T05:02:34;26.63;;;11.25;;
27889;SDS011;15238;49.082;9.102;2023-03-16T05:04:35;16.25;;;9.90;;
27889;SDS011;15238;49.082;9.102;2023-03-16T05:06:36;16.92;;;9.63;;
27889;SDS011;15238;49.082;9.102;2023-03-16T05:08:36;22.65;;;9.73;;
27889;SDS011;15238;49.082;9.102;2023-03-16T05:10:37;17.52;;;9.25;;
27889;SDS011;15238;49.082;9.102;2023-03-16T05:12:38;18.20;;;9.18;;
27889;SDS011;15238;49.082;9.102;2023-03-16T05:14:38;14.75;;;10.02;;
27889;SDS011;15238;49.082;9.102;2023-03-16T05:16:39;23.52;;;10.65;;
27889;SDS011;15238;49.082;9.102;2023-03-16T05:18:40;16.48;;;10.05;;
27889;SDS011;15238;49.082;9.102;2023-03-16T05:20:41;13.43;;;8.75;;
27889;SDS011;15238;49.082;9.102;2023-03-16T05:22:42;13.95;;;9.82;;
27889;SDS011;15238;49.082;9.102;2023-03-16T05:24:44;15.27;;;10.45;;
27889;SDS011;15238;49.082;9.102;2023-03-16T05:26:44;14.27;;;9.50;;
27889;SDS011;15238;49.082;9.102;2023-03-16T05:28:45;14.27;;;9.57;;
27889;SDS011;15238;49.082;9.102;2023-03-16T05:30:45;19.00;;;9.07;;
27889;SDS011;15238;49.082;9.102;2023-03-16T05:32:46;12.90;;;8.85;;
27889;SDS011;15238;49.082;9.102;2023-03-16T05:34:47;12.32;;;9.25;;
27889;SDS011;15238;49.082;9.102;2023-03-16T05:36:48;13.35;;;9.27;;
27889;SDS011;15238;49.082;9.102;2023-03-16T05:38:49;15.93;;;10.23;;
27889;SDS011;15238;49.082;9.102;2023-03-16T05:40:50;15.50;;;9.45;;
27889;SDS011;15238;49.082;9.102;2023-03-16T05:42:55;14.23;;;9.30;;
27889;SDS011;15238;49.082;9.102;2023-03-16T05:44:56;13.25;;;9.15;;
27889;SDS011;15238;49.082;9.102;2023-03-16T05:46:56;25.40;;;14.02;;
27889;SDS011;15238;49.082;9.102;2023-03-16T05:48:57;39.90;;;21.98;;
27889;SDS011;15238;49.082;9.102;2023-03-16T05:50:58;23.88;;;14.38;;
27889;SDS011;15238;49.082;9.102;2023-03-16T05:52:58;41.13;;;23.02;;
27889;SDS011;15238;49.082;9.102;2023-03-16T05:54:59;30.10;;;17.63;;
27889;SDS011;15238;49.082;9.102;2023-03-16T05:57:01;48.33;;;26.15;;
27889;SDS011;15238;49.082;9.102;2023-03-16T05:59:02;54.08;;;31.63;;
27889;SDS011;15238;49.082;9.102;2023-03-16T06:01:02;17.83;;;11.95;;
27889;SDS011;15238;49.082;9.102;2023-03-16T06:03:05;12.90;;;9.52;;
27889;SDS011;15238;49.082;9.102;2023-03-16T06:05:06;14.70;;;10.10;;
27889;SDS011;15238;49.082;9.102;2023-03-16T06:07:07;14.00;;;8.77;;
27889;SDS011;15238;49.082;9.102;2023-03-16T06:09:07;15.10;;;9.65;;
27889;SDS011;15238;49.082;9.102;2023-03-16T06:11:08;14.00;;;9.60;;
27889;SDS011;15238;49.082;9.102;2023-03-16T06:13:10;18.17;;;12.60;;
27889;SDS011;15238;49.082;9.102;2023-03-16T06:15:11;13.45;;;9.73;;
27889;SDS011;15238;49.082;9.102;2023-03-16T06:17:12;15.95;;;10.48;;
27889;SDS011;15238;49.082;9.102;2023-03-16T06:19:12;15.25;;;10.68;;
27889;SDS011;15238;49.082;9.102;2023-03-16T06:21:13;15.13;;;10.10;;
27889;SDS011;15238;49.082;9.102;2023-03-16T06:23:13;15.45;;;10.43;;
27889;SDS011;15238;49.082;9.102;2023-03-16T06:25:14;14.48;;;10.65;;
27889;SDS011;15238;49.082;9.102;2023-03-16T06:27:15;12.65;;;9.60;;
27889;SDS011;15238;49.082;9.102;2023-03-16T06:29:15;16.08;;;10.93;;
27889;SDS011;15238;49.082;9.102;2023-03-16T06:31:16;15.30;;;10.52;;
27889;SDS011;15238;49.082;9.102;2023-03-16T06:33:16;14.25;;;9.98;;
27889;SDS011;15238;49.082;9.102;2023-03-16T06:35:17;13.60;;;9.90;;
27889;SDS011;15238;49.082;9.102;2023-03-16T06:37:17;14.30;;;10.75;;
27889;SDS011;15238;49.082;9.102;2023-03-16T06:39:18;17.58;;;11.68;;
27889;SDS011;15238;49.082;9.102;2023-03-16T06:41:18;15.18;;;10.52;;
27889;SDS011;15238;49.082;9.102;2023-03-16T06:43:20;15.32;;;10.35;;
27889;SDS011;15238;49.082;9.102;2023-03-16T06:45:20;15.93;;;10.75;;
27889;SDS011;15238;49.082;9.102;2023-03-16T06:47:21;16.45;;;10.00;;
27889;SDS011;15238;49.082;9.102;2023-03-16T06:49:21;15.70;;;11.27;;
27889;SDS011;15238;49.082;9.102;2023-03-16T06:51:22;14.98;;;10.25;;
27889;SDS011;15238;49.082;9.102;2023-03-16T06:53:23;14.63;;;10.07;;
27889;SDS011;15238;49.082;9.102;2023-03-16T06:55:24;14.10;;;9.90;;
27889;SDS011;15238;49.082;9.102;2023-03-16T06:57:25;14.50;;;10.18;;
27889;SDS011;15238;49.082;9.102;2023-03-16T06:59:25;16.10;;;11.27;;
27889;SDS011;15238;49.082;9.102;2023-03-16T07:01:26;16.95;;;11.27;;
27889;SDS011;15238;49.082;9.102;2023-03-16T07:03:27;19.55;;;11.60;;
27889;SDS011;15238;49.082;9.102;2023-03-16T07:05:28;18.38;;;12.20;;
27889;SDS011;15238;49.082;9.102;2023-03-16T07:07:28;17.08;;;11.15;;
27889;SDS011;15238;49.082;9.102;2023-03-16T07:09:29;17.95;;;12.00;;
27889;SDS011;15238;49.082;9.102;2023-03-16T07:11:30;17.48;;;11.85;;
27889;SDS011;15238;49.082;9.102;2023-03-16T07:13:31;15.63;;;10.57;;
27889;SDS011;15238;49.082;9.102;2023-03-16T07:15:32;15.52;;;11.25;;
27889;SDS011;15238;49.082;9.102;2023-03-16T07:17:32;17.45;;;11.57;;
27889;SDS011;15238;49.082;9.102;2023-03-16T07:19:33;16.70;;;11.27;;
27889;SDS011;15238;49.082;9.102;2023-03-16T07:21:33;15.75;;;11.15;;
27889;SDS011;15238;49.082;9.102;2023-03-16T07:23:38;17.23;;;11.02;;
27889;SDS011;15238;49.082;9.102;2023-03-16T07:25:39;15.90;;;11.00;;
27889;SDS011;15238;49.082;9.102;2023-03-16T07:27:40;16.00;;;10.93;;
27889;SDS011;15238;49.082;9.102;2023-03-16T07:29:42;18.73;;;10.82;;
27889;SDS011;15238;49.082;9.102;2023-03-16T07:31:43;16.50;;;9.88;;
27889;SDS011;15238;49.082;9.102;2023-03-16T07:33:43;16.85;;;11.52;;
27889;SDS011;15238;49.082;9.102;2023-03-16T07:35:44;16.85;;;10.77;;
27889;SDS011;15238;49.082;9.102;2023-03-16T07:37:44;18.42;;;11.80;;
27889;SDS011;15238;49.082;9.102;2023-03-16T07:39:45;16.67;;;11.13;;
27889;SDS011;15238;49.082;9.102;2023-03-16T07:41:45;14.65;;;10.45;;
27889;SDS011;15238;49.082;9.102;2023-03-16T07:43:46;14.63;;;10.10;;
27889;SDS011;15238;49.082;9.102;2023-03-16T07:45:50;16.80;;;10.23;;
27889;SDS011;15238;49.082;9.102;2023-03-16T07:47:51;14.80;;;9.55;;
27889;SDS011;15238;49.082;9.102;2023-03-16T07:49:51;14.20;;;9.68;;
27889;SDS011;15238;49.082;9.102;2023-03-16T07:51:52;17.10;;;9.65;;
27889;SDS011;15238;49.082;9.102;2023-03-16T07:53:53;13.57;;;9.00;;
27889;SDS011;15238;49.082;9.102;2023-03-16T07:55:53;15.48;;;9.90;;
27889;SDS011;15238;49.082;9.102;2023-03-16T07:57:54;15.13;;;9.98;;
27889;SDS011;15238;49.082;9.102;2023-03-16T07:59:54;15.50;;;10.20;;
27889;SDS011;15238;49.082;9.102;2023-03-16T08:01:55;15.07;;;9.45;;
27889;SDS011;15238;49.082;9.102;2023-03-16T08:03:55;15.07;;;9.52;;
27889;SDS011;15238;49.082;9.102;2023-03-16T08:05:56;13.68;;;9.45;;
27889;SDS011;15238;49.082;9.102;2023-03-16T08:07:56;13.60;;;9.43;;
27889;SDS011;15238;49.082;9.102;2023-03-16T08:09:57;10.77;;;8.00;;
27889;SDS011;15238;49.082;9.102;2023-03-16T08:11:58;11.55;;;8.00;;
27889;SDS011;15238;49.082;9.102;2023-03-16T08:13:58;14.07;;;8.52;;
27889;SDS011;15238;49.082;9.102;2023-03-16T08:15:59;12.02;;;8.70;;
27889;SDS011;15238;49.082;9.102;2023-03-16T08:18:00;10.25;;;7.80;;
27889;SDS011;15238;49.082;9.102;2023-03-16T08:20:02;14.55;;;8.38;;
27889;SDS011;15238;49.082;9.102;2023-03-16T08:22:07;11.48;;;7.72;;
27889;SDS011;15238;49.082;9.102;2023-03-16T08:24:08;10.52;;;7.15;;
27889;SDS011;15238;49.082;9.102;2023-03-16T08:26:09;13.27;;;8.35;;
27889;SDS011;15238;49.082;9.102;2023-03-16T08:28:10;11.95;;;7.75;;
27889;SDS011;15238;49.082;9.102;2023-03-16T08:30:11;10.52;;;7.53;;
27889;SDS011;15238;49.082;9.102;2023-03-16T08:32:12;11.55;;;7.40;;
27889;SDS011;15238;49.082;9.102;2023-03-16T08:34:13;10.90;;;6.75;;
27889;SDS011;15238;49.082;9.102;2023-03-16T08:36:15;11.45;;;7.70;;
27889;SDS011;15238;49.082;9.102;2023-03-16T08:38:17;10.43;;;6.65;;
27889;SDS011;15238;49.082;9.102;2023-03-16T08:40:18;8.77;;;6.00;;
27889;SDS011;15238;49.082;9.102;2023-03-16T08:42:21;14.15;;;7.38;;
27889;SDS011;15238;49.082;9.102;2023-03-16T08:44:22;12.13;;;7.25;;
27889;SDS011;15238;49.082;9.102;2023-03-16T08:46:24;12.57;;;7.40;;
27889;SDS011;15238;49.082;9.102;2023-03-16T08:48:26;10.05;;;7.78;;
27889;SDS011;15238;49.082;9.102;2023-03-16T08:50:27;11.63;;;6.68;;
27889;SDS011;15238;49.082;9.102;2023-03-16T08:52:28;10.43;;;6.95;;
27889;SDS011;15238;49.082;9.102;2023-03-16T08:54:28;10.38;;;6.63;;
27889;SDS011;15238;49.082;9.102;2023-03-16T08:56:31;9.88;;;6.38;;
27889;SDS011;15238;49.082;9.102;2023-03-16T08:58:32;12.05;;;6.22;;
27889;SDS011;15238;49.082;9.102;2023-03-16T09:00:33;8.85;;;5.72;;
27889;SDS011;15238;49.082;9.102;2023-03-16T09:02:34;9.77;;;6.03;;
27889;SDS011;15238;49.082;9.102;2023-03-16T09:04:37;8.48;;;6.60;;
27889;SDS011;15238;49.082;9.102;2023-03-16T09:06:37;7.93;;;5.82;;
27889;SDS011;15238;49.082;9.102;2023-03-16T09:08:38;12.48;;;6.68;;
27889;SDS011;15238;49.082;9.102;2023-03-16T09:10:40;9.38;;;6.63;;
27889;SDS011;15238;49.082;9.102;2023-03-16T09:12:41;9.85;;;5.68;;
27889;SDS011;15238;49.082;9.102;2023-03-16T09:14:42;9.65;;;6.35;;
27889;SDS011;15238;49.082;9.102;2023-03-16T09:16:44;7.47;;;5.78;;
27889;SDS011;15238;49.082;9.102;2023-03-16T09:18:45;9.80;;;6.40;;
27889;SDS011;15238;49.082;9.102;2023-03-16T09:20:46;7.55;;;5.90;;
27889;SDS011;15238;49.082;9.102;2023-03-16T09:22:47;9.48;;;6.15;;
27889;SDS011;15238;49.082;9.102;2023-03-16T09:24:48;8.27;;;5.57;;
27889;SDS011;15238;49.082;9.102;2023-03-16T09:26:48;9.38;;;6.40;;
27889;SDS011;15238;49.082;9.102;2023-03-16T09:28:49;9.98;;;6.50;;
27889;SDS011;15238;49.082;9.102;2023-03-16T09:30:49;10.18;;;6.60;;
27889;SDS011;15238;49.082;9.102;2023-03-16T09:32:50;10.30;;;6.90;;
27889;SDS011;15238;49.082;9.102;2023-03-16T09:34:51;10.48;;;6.57;;
27889;SDS011;15238;49.082;9.102;2023-03-16T09:36:51;9.90;;;6.68;;
27889;SDS011;15238;49.082;9.102;2023-03-16T09:38:52;10.77;;;6.03;;
27889;SDS011;15238;49.082;9.102;2023-03-16T09:40:57;9.05;;;5.97;;
27889;SDS011;15238;49.082;9.102;2023-03-16T09:43:14;7.32;;;5.30;;
27889;SDS011;15238;49.082;9.102;2023-03-16T09:45:29;9.00;;;5.65;;
27889;SDS011;15238;49.082;9.102;2023-03-16T09:47:37;7.88;;;5.20;;
27889;SDS011;15238;49.082;9.102;2023-03-16T09:49:41;9.88;;;6.10;;
27889;SDS011;15238;49.082;9.102;2023-03-16T09:51:58;8.68;;;5.70;;
27889;SDS011;15238;49.082;9.102;2023-03-16T09:54:22;8.73;;;5.10;;
27889;SDS011;15238;49.082;9.102;2023-03-16T09:56:29;7.78;;;5.32;;
27889;SDS011;15238;49.082;9.102;2023-03-16T09:58:35;6.95;;;5.15;;
27889;SDS011;15238;49.082;9.102;2023-03-16T10:00:37;7.05;;;5.05;;
27889;SDS011;15238;49.082;9.102;2023-03-16T10:09:30;7.65;;;4.50;;
27889;SDS011;15238;49.082;9.102;2023-03-16T10:11:46;6.78;;;4.30;;
27889;SDS011;15238;49.082;9.102;2023-03-16T10:14:08;6.47;;;4.57;;
27889;SDS011;15238;49.082;9.102;2023-03-16T10:16:16;9.90;;;4.60;;
27889;SDS011;15238;49.082;9.102;2023-03-16T10:18:27;10.60;;;5.68;;
27889;SDS011;15238;49.082;9.102;2023-03-16T10:20:32;7.95;;;5.20;;
27889;SDS011;15238;49.082;9.102;2023-03-16T10:22:35;6.72;;;4.93;;
27889;SDS011;15238;49.082;9.102;2023-03-16T10:24:42;7.32;;;4.45;;
27889;SDS011;15238;49.082;9.102;2023-03-16T10:27:00;6.80;;;4.28;;
27889;SDS011;15238;49.082;9.102;2023-03-16T10:29:08;7.05;;;4.55;;
27889;SDS011;15238;49.082;9.102;2023-03-16T10:31:13;6.93;;;4.97;;
27889;SDS011;15238;49.082;9.102;2023-03-16T10:33:23;7.28;;;4.28;;
27889;SDS011;15238;49.082;9.102;2023-03-16T10:37:50;9.45;;;4.28;;
27889;SDS011;15238;49.082;9.102;2023-03-16T10:39:51;7.13;;;4.80;;
27889;SDS011;15238;49.082;9.102;2023-03-16T10:41:55;9.88;;;4.63;;
27889;SDS011;15238;49.082;9.102;2023-03-16T10:46:09;7.80;;;3.72;;
27889;SDS011;15238;49.082;9.102;2023-03-16T10:48:15;4.78;;;3.90;;
27889;SDS011;15238;49.082;9.102;2023-03-16T10:50:22;6.05;;;4.15;;
27889;SDS011;15238;49.082;9.102;2023-03-16T10:54:34;5.50;;;4.15;;
27889;SDS011;15238;49.082;9.102;2023-03-16T10:56:38;10.60;;;4.18;;
27889;SDS011;15238;49.082;9.102;2023-03-16T10:58:40;6.50;;;4.15;;
27889;SDS011;15238;49.082;9.102;2023-03-16T11:00:42;6.20;;;4.28;;
27889;SDS011;15238;49.082;9.102;2023-03-16T11:02:45;7.25;;;4.13;;
27889;SDS011;15238;49.082;9.102;2023-03-16T11:04:48;5.65;;;3.83;;
27889;SDS011;15238;49.082;9.102;2023-03-16T11:06:55;8.73;;;4.25;;
27889;SDS011;15238;49.082;9.102;2023-03-16T11:09:04;4.28;;;3.40;;
27889;SDS011;15238;49.082;9.102;2023-03-16T11:11:20;6.65;;;3.53;;
27889;SDS011;15238;49.082;9.102;2023-03-16T11:13:35;6.00;;;3.38;;
27889;SDS011;15238;49.082;9.102;2023-03-16T11:15:39;4.82;;;3.30;;
27889;SDS011;15238;49.082;9.102;2023-03-16T11:18:21;6.95;;;3.35;;
27889;SDS011;15238;49.082;9.102;2023-03-16T11:20:29;4.55;;;2.92;;
27889;SDS011;15238;49.082;9.102;2023-03-16T11:22:32;5.18;;;2.55;;
27889;SDS011;15238;49.082;9.102;2023-03-16T11:26:42;5.25;;;3.00;;
27889;SDS011;15238;49.082;9.102;2023-03-16T11:28:45;4.05;;;2.65;;
27889;SDS011;15238;49.082;9.102;2023-03-16T11:33:23;2.67;;;2.40;;
27889;SDS011;15238;49.082;9.102;2023-03-16T11:42:32;6.63;;;2.70;;
27889;SDS011;15238;49.082;9.102;2023-03-16T11:49:46;6.05;;;3.05;;
27889;SDS011;15238;49.082;9.102;2023-03-16T11:57:26;3.00;;;2.00;;
27889;SDS011;15238;49.082;9.102;2023-03-16T12:00:07;3.17;;;1.88;;
27889;SDS011;15238;49.082;9.102;2023-03-16T12:02:36;3.33;;;1.92;;
27889;SDS011;15238;49.082;9.102;2023-03-16T12:13:55;4.63;;;2.92;;
27889;SDS011;15238;49.082;9.102;2023-03-16T12:16:20;2.65;;;2.08;;
27889;SDS011;15238;49.082;9.102;2023-03-16T12:18:24;4.05;;;1.65;;
27889;SDS011;15238;49.082;9.102;2023-03-16T12:20:34;6.38;;;2.10;;
27889;SDS011;15238;49.082;9.102;2023-03-16T12:22:43;3.00;;;2.08;;
27889;SDS011;15238;49.082;9.102;2023-03-16T12:24:49;3.63;;;1.80;;
27889;SDS011;15238;49.082;9.102;2023-03-16T12:26:49;2.58;;;1.90;;
27889;SDS011;15238;49.082;9.102;2023-03-16T12:28:52;4.68;;;2.00;;
27889;SDS011;15238;49.082;9.102;2023-03-16T12:30:59;4.40;;;2.00;;
27889;SDS011;15238;49.082;9.102;2023-03-16T12:37:44;3.67;;;1.55;;
27889;SDS011;15238;49.082;9.102;2023-03-16T12:40:19;2.80;;;1.80;;
27889;SDS011;15238;49.082;9.102;2023-03-16T12:45:00;2.28;;;1.30;;
27889;SDS011;15238;49.082;9.102;2023-03-16T12:47:09;2.40;;;1.23;;
27889;SDS011;15238;49.082;9.102;2023-03-16T12:49:22;4.05;;;1.58;;
27889;SDS011;15238;49.082;9.102;2023-03-16T12:51:37;2.47;;;1.48;;
27889;SDS011;15238;49.082;9.102;2023-03-16T12:53:41;3.63;;;1.67;;
27889;SDS011;15238;49.082;9.102;2023-03-16T12:55:52;2.13;;;1.08;;
27889;SDS011;15238;49.082;9.102;2023-03-16T12:57:59;1.30;;;1.02;;
27889;SDS011;15238;49.082;9.102;2023-03-16T13:00:04;1.98;;;1.20;;